Terminal Aerodrome Forecast
Issued by NWS Shreveport, LA

Home | Current Version | Previous Version | Text Only | Print | Product List | Glossary On
Versions: 1 2 3 4 5 6 7 8 9 10 11 12 13 14 15 16 17
000
FTUS44 KSHV 261759
TAFLFK
TAF
KLFK 261759Z 2618/2718 36006KT P6SM SCT015 BKN025
      TEMPO 2618/2620 BKN015
     FM262000 01007KT P6SM VCSH BKN030
     FM270100 01004KT P6SM BKN025
     FM271500 01005KT P6SM SCT025 BKN035=

USA.gov is the U.S. government's official web portal to all federal, state and local government web resources and services.